3B3 weather

Sterling Airport
Sterling, Massachusetts, United States

Public forecast

Using degrees Fahrenheit for public forecast. Weather courtesy of forecast.io.

METAR (pilot weather report)

Closest report is Fitchburg Municipal Airport, 7.8 nm (14.5 km) N. Retrieved 2019/07/17 16:52 UTC (47 minutes ago):

KFIT 171652Z AUTO 26006KT 10SM FEW090 29/21 A2991 RMK AO2 SLP128 T02940206

TAF (pilot weather forecast)

Closest forecast is Worcester Regional Airport, 10.2 nm (18.9 km) SSW. Retrieved 2019/07/17 12:28 UTC (5 hours ago):

TAF KORH 171126Z 1712/1812 24010KT P6SM BKN090 FM171500 24006KT P6SM VCSH BKN090 FM171900 24007KT 2SM +SHRA BR VCTS BKN050CB FM180000 27004KT 5SM -SHRA OVC050 FM180200 28003KT 6SM -SHRA OVC030 FM180500 00000KT 6SM -SHRA OVC015